This is the latest recevied weather packets stored in our database for station/object KO4LCK. If no packets are shown the sender has not sent any weather packets the latest 10 day(s).
| Time | Temp. | Humidity | Pressure | Rain* | Wind** | Luminosity | Snow |
|---|---|---|---|---|---|---|---|
| 1777156797 | 25.56° C | 60% | 1008.7 hPa | 0 mm | - | 111 W/m² | - |
| 1777156497 | 25.56° C | 60% | 1008.7 hPa | 0 mm | - | 132 W/m² | - |
| 1777156195 | 25.56° C | 58% | 1008.9 hPa | 0 mm | - | 106 W/m² | - |
| 1777155890 | 26.11° C | 58% | 1008.8 hPa | 0 mm | - | 108 W/m² | - |
| 1777155586 | 26.67° C | 57% | 1008.8 hPa | 0 mm | - | 141 W/m² | - |
| 1777155283 | 26.67° C | 54% | 1008.9 hPa | 0 mm | - | 258 W/m² | - |
| 1777154980 | 27.22° C | 55% | 1008.8 hPa | 0 mm | - | 310 W/m² | - |
| 1777154677 | 26.11° C | 57% | 1008.8 hPa | 0 mm | - | 317 W/m² | - |
| 1777154374 | 25.56° C | 58% | 1009 hPa | 0 mm | - | 116 W/m² | - |
| 1777154069 | 26.11° C | 58% | 1008.8 hPa | 0 mm | - | 147 W/m² | - |
| 1777153765 | 26.67° C | 55% | 1008.9 hPa | 0 mm | - | 113 W/m² | - |
| 1777153461 | 26.67° C | 53% | 1009 hPa | 0 mm | - | 349 W/m² | - |
| 1777153157 | 26.11° C | 56% | 1009.1 hPa | 0 mm | - | 133 W/m² | - |
| 1777152854 | 25.56° C | 56% | 1009.2 hPa | 0 mm | - | 441 W/m² | - |
| 1777152551 | 26.11° C | 54% | 1009.1 hPa | 0 mm | - | 488 W/m² | - |
| 1777152249 | 26.67° C | 57% | 1009.3 hPa | 0 mm | - | 512 W/m² | - |
| 1777151948 | 25.56° C | 60% | 1009.3 hPa | 0 mm | - | 318 W/m² | - |
| 1777151644 | 25.56° C | 57% | 1009.3 hPa | 0 mm | - | 268 W/m² | - |
| 1777151342 | 26.11° C | 57% | 1009 hPa | 0 mm | - | 167 W/m² | - |
| 1777151041 | 26.11° C | 59% | 1008.9 hPa | 0 mm | - | 282 W/m² | - |
| 1777150736 | 26.11° C | 60% | 1009.2 hPa | 0 mm | - | 186 W/m² | - |
| 1777150432 | 25.56° C | 61% | 1009.3 hPa | 0 mm | - | 518 W/m² | - |
| 1777150129 | 25.56° C | 61% | 1009.3 hPa | 0 mm | - | 516 W/m² | - |
| 1777149825 | 26.67° C | 57% | 1009.3 hPa | 0 mm | - | 211 W/m² | - |
| 1777149522 | 25.56° C | 60% | 1009.5 hPa | 0 mm | - | 470 W/m² | - |
* Rain latest hour (hover to see other rain measurements)
** Current wind speed in m/s (hover to see current wind gust speed)